sensor_id;sensor_type;location;lat;lon;timestamp;temperature;humidity
20174;DHT22;10246;50.620;7.232;2023-02-28T00:00:48;1.00;1.00
20174;DHT22;10246;50.620;7.232;2023-02-28T00:03:15;1.00;1.00
20174;DHT22;10246;50.620;7.232;2023-02-28T00:05:44;1.00;1.00
20174;DHT22;10246;50.620;7.232;2023-02-28T00:08:12;1.00;1.00
20174;DHT22;10246;50.620;7.232;2023-02-28T00:10:39;1.00;1.00
20174;DHT22;10246;50.620;7.232;2023-02-28T00:13:07;1.00;1.00
20174;DHT22;10246;50.620;7.232;2023-02-28T00:15:34;1.00;1.00
20174;DHT22;10246;50.620;7.232;2023-02-28T00:18:01;1.00;1.00
20174;DHT22;10246;50.620;7.232;2023-02-28T00:20:28;1.00;1.00
20174;DHT22;10246;50.620;7.232;2023-02-28T00:22:56;0.90;1.00
20174;DHT22;10246;50.620;7.232;2023-02-28T00:25:25;0.90;1.00
20174;DHT22;10246;50.620;7.232;2023-02-28T00:27:52;0.90;1.00
20174;DHT22;10246;50.620;7.232;2023-02-28T00:30:20;0.90;1.00
20174;DHT22;10246;50.620;7.232;2023-02-28T00:32:47;0.90;1.00
20174;DHT22;10246;50.620;7.232;2023-02-28T00:35:14;0.80;1.00
20174;DHT22;10246;50.620;7.232;2023-02-28T00:37:41;0.90;1.00
20174;DHT22;10246;50.620;7.232;2023-02-28T00:40:11;0.90;1.00
20174;DHT22;10246;50.620;7.232;2023-02-28T00:42:39;0.90;1.00
20174;DHT22;10246;50.620;7.232;2023-02-28T00:45:07;0.90;1.00
20174;DHT22;10246;50.620;7.232;2023-02-28T00:47:34;0.90;1.00
20174;DHT22;10246;50.620;7.232;2023-02-28T00:50:01;0.90;1.00
20174;DHT22;10246;50.620;7.232;2023-02-28T00:52:28;0.90;1.00
20174;DHT22;10246;50.620;7.232;2023-02-28T00:54:54;0.90;1.00
20174;DHT22;10246;50.620;7.232;2023-02-28T00:57:22;0.90;1.00
20174;DHT22;10246;50.620;7.232;2023-02-28T00:59:50;0.90;1.00
20174;DHT22;10246;50.620;7.232;2023-02-28T01:02:16;0.90;1.00
20174;DHT22;10246;50.620;7.232;2023-02-28T01:04:46;0.90;1.00
20174;DHT22;10246;50.620;7.232;2023-02-28T01:07:12;0.90;1.00
20174;DHT22;10246;50.620;7.232;2023-02-28T01:09:39;0.90;1.00
20174;DHT22;10246;50.620;7.232;2023-02-28T01:12:07;1.00;1.00
20174;DHT22;10246;50.620;7.232;2023-02-28T01:14:34;1.00;1.00
20174;DHT22;10246;50.620;7.232;2023-02-28T01:17:04;1.00;1.00
20174;DHT22;10246;50.620;7.232;2023-02-28T01:19:31;1.00;1.00
20174;DHT22;10246;50.620;7.232;2023-02-28T01:22:00;1.00;1.00
20174;DHT22;10246;50.620;7.232;2023-02-28T01:24:27;1.00;1.00
20174;DHT22;10246;50.620;7.232;2023-02-28T01:26:54;1.00;1.00
20174;DHT22;10246;50.620;7.232;2023-02-28T01:29:20;1.10;1.00
20174;DHT22;10246;50.620;7.232;2023-02-28T01:31:47;1.10;1.00
20174;DHT22;10246;50.620;7.232;2023-02-28T01:34:15;1.20;1.00
20174;DHT22;10246;50.620;7.232;2023-02-28T01:36:44;1.20;1.00
20174;DHT22;10246;50.620;7.232;2023-02-28T01:39:11;1.20;1.00
20174;DHT22;10246;50.620;7.232;2023-02-28T01:41:39;1.20;1.00
20174;DHT22;10246;50.620;7.232;2023-02-28T01:46:49;1.10;1.00
20174;DHT22;10246;50.620;7.232;2023-02-28T01:49:18;1.10;1.00
20174;DHT22;10246;50.620;7.232;2023-02-28T01:51:47;1.00;1.00
20174;DHT22;10246;50.620;7.232;2023-02-28T01:54:19;1.10;1.00
20174;DHT22;10246;50.620;7.232;2023-02-28T01:56:51;1.10;1.00
20174;DHT22;10246;50.620;7.232;2023-02-28T01:59:23;1.20;1.00
20174;DHT22;10246;50.620;7.232;2023-02-28T02:01:50;1.20;1.00
20174;DHT22;10246;50.620;7.232;2023-02-28T02:04:19;1.10;1.00
20174;DHT22;10246;50.620;7.232;2023-02-28T02:06:48;1.10;1.00
20174;DHT22;10246;50.620;7.232;2023-02-28T02:09:15;1.10;1.00
20174;DHT22;10246;50.620;7.232;2023-02-28T02:11:43;1.10;1.00
20174;DHT22;10246;50.620;7.232;2023-02-28T02:14:36;1.10;1.00
20174;DHT22;10246;50.620;7.232;2023-02-28T02:17:21;1.10;1.00
20174;DHT22;10246;50.620;7.232;2023-02-28T02:20:16;1.10;1.00
20174;DHT22;10246;50.620;7.232;2023-02-28T02:23:18;1.00;1.00
20174;DHT22;10246;50.620;7.232;2023-02-28T02:25:53;1.00;1.00
20174;DHT22;10246;50.620;7.232;2023-02-28T02:28:50;1.00;1.00
20174;DHT22;10246;50.620;7.232;2023-02-28T02:31:45;1.10;1.00
20174;DHT22;10246;50.620;7.232;2023-02-28T02:34:29;1.10;1.00
20174;DHT22;10246;50.620;7.232;2023-02-28T02:37:08;1.10;1.00
20174;DHT22;10246;50.620;7.232;2023-02-28T02:39:44;1.10;1.00
20174;DHT22;10246;50.620;7.232;2023-02-28T02:42:16;1.10;1.00
20174;DHT22;10246;50.620;7.232;2023-02-28T02:44:50;1.10;1.00
20174;DHT22;10246;50.620;7.232;2023-02-28T02:47:20;1.10;1.00
20174;DHT22;10246;50.620;7.232;2023-02-28T02:49:51;1.00;1.00
20174;DHT22;10246;50.620;7.232;2023-02-28T02:52:21;1.00;1.00
20174;DHT22;10246;50.620;7.232;2023-02-28T02:54:50;0.90;1.00
20174;DHT22;10246;50.620;7.232;2023-02-28T02:57:24;0.90;1.00
20174;DHT22;10246;50.620;7.232;2023-02-28T02:59:54;0.90;1.00
20174;DHT22;10246;50.620;7.232;2023-02-28T03:02:22;0.70;1.00
20174;DHT22;10246;50.620;7.232;2023-02-28T03:04:53;0.70;1.00
20174;DHT22;10246;50.620;7.232;2023-02-28T03:07:26;0.80;1.00
20174;DHT22;10246;50.620;7.232;2023-02-28T03:09:54;0.80;1.00
20174;DHT22;10246;50.620;7.232;2023-02-28T03:12:25;0.70;1.00
20174;DHT22;10246;50.620;7.232;2023-02-28T03:14:57;0.70;1.00
20174;DHT22;10246;50.620;7.232;2023-02-28T03:17:50;0.70;1.00
20174;DHT22;10246;50.620;7.232;2023-02-28T03:20:31;0.70;1.00
20174;DHT22;10246;50.620;7.232;2023-02-28T03:23:08;0.60;1.00
20174;DHT22;10246;50.620;7.232;2023-02-28T03:25:45;0.60;1.00
20174;DHT22;10246;50.620;7.232;2023-02-28T03:28:17;0.70;1.00
20174;DHT22;10246;50.620;7.232;2023-02-28T03:30:50;0.70;1.00
20174;DHT22;10246;50.620;7.232;2023-02-28T03:33:21;0.80;1.00
20174;DHT22;10246;50.620;7.232;2023-02-28T03:35:53;0.70;1.00
20174;DHT22;10246;50.620;7.232;2023-02-28T03:38:24;0.70;1.00
20174;DHT22;10246;50.620;7.232;2023-02-28T03:40:58;0.70;1.00
20174;DHT22;10246;50.620;7.232;2023-02-28T03:43:29;0.70;1.00
20174;DHT22;10246;50.620;7.232;2023-02-28T03:45:59;0.70;1.00
20174;DHT22;10246;50.620;7.232;2023-02-28T03:48:32;0.80;1.00
20174;DHT22;10246;50.620;7.232;2023-02-28T03:51:06;0.80;1.00
20174;DHT22;10246;50.620;7.232;2023-02-28T03:53:38;0.70;1.00
20174;DHT22;10246;50.620;7.232;2023-02-28T03:56:09;0.70;1.00
20174;DHT22;10246;50.620;7.232;2023-02-28T03:58:40;0.80;1.00
20174;DHT22;10246;50.620;7.232;2023-02-28T04:01:12;0.80;1.00
20174;DHT22;10246;50.620;7.232;2023-02-28T04:03:39;0.80;1.00
20174;DHT22;10246;50.620;7.232;2023-02-28T04:06:14;0.80;1.00
20174;DHT22;10246;50.620;7.232;2023-02-28T04:08:41;0.80;1.00
20174;DHT22;10246;50.620;7.232;2023-02-28T04:11:21;0.80;1.00
20174;DHT22;10246;50.620;7.232;2023-02-28T04:13:48;0.80;1.00
20174;DHT22;10246;50.620;7.232;2023-02-28T04:16:15;0.80;1.00
20174;DHT22;10246;50.620;7.232;2023-02-28T04:18:42;0.80;1.00
20174;DHT22;10246;50.620;7.232;2023-02-28T04:21:11;0.70;1.00
20174;DHT22;10246;50.620;7.232;2023-02-28T04:23:38;0.70;1.00
20174;DHT22;10246;50.620;7.232;2023-02-28T04:26:06;0.70;1.00
20174;DHT22;10246;50.620;7.232;2023-02-28T04:28:33;0.70;1.00
20174;DHT22;10246;50.620;7.232;2023-02-28T04:31:01;0.70;1.00
20174;DHT22;10246;50.620;7.232;2023-02-28T04:33:30;0.70;1.00
20174;DHT22;10246;50.620;7.232;2023-02-28T04:36:01;0.70;1.00
20174;DHT22;10246;50.620;7.232;2023-02-28T04:38:33;0.70;1.00
20174;DHT22;10246;50.620;7.232;2023-02-28T04:41:00;0.80;1.00
20174;DHT22;10246;50.620;7.232;2023-02-28T04:43:28;0.70;1.00
20174;DHT22;10246;50.620;7.232;2023-02-28T04:45:57;0.70;1.00
20174;DHT22;10246;50.620;7.232;2023-02-28T04:48:25;0.70;1.00
20174;DHT22;10246;50.620;7.232;2023-02-28T04:50:52;0.70;1.00
20174;DHT22;10246;50.620;7.232;2023-02-28T04:53:19;0.60;1.00
20174;DHT22;10246;50.620;7.232;2023-02-28T04:55:47;0.70;1.00
20174;DHT22;10246;50.620;7.232;2023-02-28T04:58:14;0.70;1.00
20174;DHT22;10246;50.620;7.232;2023-02-28T05:00:41;0.60;1.00
20174;DHT22;10246;50.620;7.232;2023-02-28T05:03:08;0.60;1.00
20174;DHT22;10246;50.620;7.232;2023-02-28T05:05:35;0.60;1.00
20174;DHT22;10246;50.620;7.232;2023-02-28T05:08:01;0.60;1.00
20174;DHT22;10246;50.620;7.232;2023-02-28T05:10:28;0.50;1.00
20174;DHT22;10246;50.620;7.232;2023-02-28T05:12:56;0.60;1.00
20174;DHT22;10246;50.620;7.232;2023-02-28T05:15:23;0.50;1.00
20174;DHT22;10246;50.620;7.232;2023-02-28T05:17:50;0.50;1.00
20174;DHT22;10246;50.620;7.232;2023-02-28T05:20:17;0.60;1.00
20174;DHT22;10246;50.620;7.232;2023-02-28T05:22:44;0.50;1.00
20174;DHT22;10246;50.620;7.232;2023-02-28T05:25:12;0.50;1.00
20174;DHT22;10246;50.620;7.232;2023-02-28T05:27:40;0.40;1.00
20174;DHT22;10246;50.620;7.232;2023-02-28T05:30:09;0.40;1.00
20174;DHT22;10246;50.620;7.232;2023-02-28T05:32:36;0.30;1.00
20174;DHT22;10246;50.620;7.232;2023-02-28T05:35:04;0.30;1.00
20174;DHT22;10246;50.620;7.232;2023-02-28T05:37:31;0.20;1.00
20174;DHT22;10246;50.620;7.232;2023-02-28T05:39:58;0.20;1.00
20174;DHT22;10246;50.620;7.232;2023-02-28T05:42:25;0.20;1.00
20174;DHT22;10246;50.620;7.232;2023-02-28T05:44:52;0.10;1.00
20174;DHT22;10246;50.620;7.232;2023-02-28T05:47:20;0.10;1.00
20174;DHT22;10246;50.620;7.232;2023-02-28T05:49:46;0.10;1.00
20174;DHT22;10246;50.620;7.232;2023-02-28T05:52:13;0.00;1.00
20174;DHT22;10246;50.620;7.232;2023-02-28T05:54:40;0.00;1.00
20174;DHT22;10246;50.620;7.232;2023-02-28T05:57:07;0.00;1.00
20174;DHT22;10246;50.620;7.232;2023-02-28T05:59:34;-0.10;1.00
20174;DHT22;10246;50.620;7.232;2023-02-28T06:02:05;-0.10;1.00
20174;DHT22;10246;50.620;7.232;2023-02-28T06:04:33;-0.10;1.00
20174;DHT22;10246;50.620;7.232;2023-02-28T06:07:00;-0.10;1.00
20174;DHT22;10246;50.620;7.232;2023-02-28T06:09:27;-0.10;1.00
20174;DHT22;10246;50.620;7.232;2023-02-28T06:11:54;-0.10;1.00
20174;DHT22;10246;50.620;7.232;2023-02-28T06:14:21;-0.10;1.00
20174;DHT22;10246;50.620;7.232;2023-02-28T06:16:48;-0.20;1.00
20174;DHT22;10246;50.620;7.232;2023-02-28T06:19:14;-0.20;1.00
20174;DHT22;10246;50.620;7.232;2023-02-28T06:21:43;-0.20;1.00
20174;DHT22;10246;50.620;7.232;2023-02-28T06:24:10;-0.30;1.00
20174;DHT22;10246;50.620;7.232;2023-02-28T06:26:37;-0.20;1.00
20174;DHT22;10246;50.620;7.232;2023-02-28T06:29:04;-0.20;1.00
20174;DHT22;10246;50.620;7.232;2023-02-28T06:31:33;-0.20;1.00
20174;DHT22;10246;50.620;7.232;2023-02-28T06:33:59;-0.20;1.00
20174;DHT22;10246;50.620;7.232;2023-02-28T06:36:26;-0.20;1.00
20174;DHT22;10246;50.620;7.232;2023-02-28T06:38:54;-0.20;1.00
20174;DHT22;10246;50.620;7.232;2023-02-28T06:41:22;-0.20;1.00
20174;DHT22;10246;50.620;7.232;2023-02-28T06:43:49;-0.20;1.00
20174;DHT22;10246;50.620;7.232;2023-02-28T06:46:16;-0.20;1.00
20174;DHT22;10246;50.620;7.232;2023-02-28T06:48:43;-0.20;1.00
20174;DHT22;10246;50.620;7.232;2023-02-28T06:51:12;-0.20;1.00
20174;DHT22;10246;50.620;7.232;2023-02-28T06:53:40;-0.30;1.00
20174;DHT22;10246;50.620;7.232;2023-02-28T06:56:09;-0.30;1.00
20174;DHT22;10246;50.620;7.232;2023-02-28T06:58:37;-0.30;1.00
20174;DHT22;10246;50.620;7.232;2023-02-28T07:01:05;-0.30;1.00
20174;DHT22;10246;50.620;7.232;2023-02-28T07:03:32;-0.40;1.00
20174;DHT22;10246;50.620;7.232;2023-02-28T07:05:59;-0.40;1.00
20174;DHT22;10246;50.620;7.232;2023-02-28T07:08:26;-0.40;1.00
20174;DHT22;10246;50.620;7.232;2023-02-28T07:10:53;-0.40;1.00
20174;DHT22;10246;50.620;7.232;2023-02-28T07:13:22;-0.40;1.00
20174;DHT22;10246;50.620;7.232;2023-02-28T07:15:56;-0.40;1.00
20174;DHT22;10246;50.620;7.232;2023-02-28T07:18:23;-0.40;1.00
20174;DHT22;10246;50.620;7.232;2023-02-28T07:20:50;-0.40;1.00
20174;DHT22;10246;50.620;7.232;2023-02-28T07:23:17;-0.30;1.00
20174;DHT22;10246;50.620;7.232;2023-02-28T07:25:44;-0.30;1.00
20174;DHT22;10246;50.620;7.232;2023-02-28T07:28:12;-0.20;1.00
20174;DHT22;10246;50.620;7.232;2023-02-28T07:30:40;-0.10;1.00
20174;DHT22;10246;50.620;7.232;2023-02-28T07:33:07;-0.10;1.00
20174;DHT22;10246;50.620;7.232;2023-02-28T07:35:34;-0.10;1.00
20174;DHT22;10246;50.620;7.232;2023-02-28T07:38:01;-0.10;1.00
20174;DHT22;10246;50.620;7.232;2023-02-28T07:40:28;-0.10;1.00
20174;DHT22;10246;50.620;7.232;2023-02-28T07:42:55;0.00;1.00
20174;DHT22;10246;50.620;7.232;2023-02-28T07:45:21;0.00;1.00
20174;DHT22;10246;50.620;7.232;2023-02-28T07:47:49;0.00;1.00
20174;DHT22;10246;50.620;7.232;2023-02-28T07:50:16;0.00;1.00
20174;DHT22;10246;50.620;7.232;2023-02-28T07:52:43;0.00;1.00
20174;DHT22;10246;50.620;7.232;2023-02-28T07:55:10;0.10;1.00
20174;DHT22;10246;50.620;7.232;2023-02-28T07:57:37;0.20;1.00
20174;DHT22;10246;50.620;7.232;2023-02-28T08:00:06;0.30;1.00
20174;DHT22;10246;50.620;7.232;2023-02-28T08:02:35;0.40;1.00
20174;DHT22;10246;50.620;7.232;2023-02-28T08:05:04;0.50;1.00
20174;DHT22;10246;50.620;7.232;2023-02-28T08:07:31;0.50;1.00
20174;DHT22;10246;50.620;7.232;2023-02-28T08:09:58;0.60;1.00
20174;DHT22;10246;50.620;7.232;2023-02-28T08:12:25;0.90;1.00
20174;DHT22;10246;50.620;7.232;2023-02-28T08:14:52;1.00;1.00
20174;DHT22;10246;50.620;7.232;2023-02-28T08:17:19;1.10;1.00
20174;DHT22;10246;50.620;7.232;2023-02-28T08:19:45;1.10;1.00
20174;DHT22;10246;50.620;7.232;2023-02-28T08:22:13;1.20;1.00
20174;DHT22;10246;50.620;7.232;2023-02-28T08:24:41;1.30;1.00
20174;DHT22;10246;50.620;7.232;2023-02-28T08:27:09;1.50;1.00
20174;DHT22;10246;50.620;7.232;2023-02-28T08:29:37;1.60;1.00
20174;DHT22;10246;50.620;7.232;2023-02-28T08:32:04;1.60;1.00
20174;DHT22;10246;50.620;7.232;2023-02-28T08:34:31;1.70;1.00
20174;DHT22;10246;50.620;7.232;2023-02-28T08:36:58;1.70;1.00
20174;DHT22;10246;50.620;7.232;2023-02-28T08:39:26;1.90;1.00
20174;DHT22;10246;50.620;7.232;2023-02-28T08:41:53;2.00;1.00
20174;DHT22;10246;50.620;7.232;2023-02-28T08:44:19;2.10;1.00
20174;DHT22;10246;50.620;7.232;2023-02-28T08:46:46;2.20;1.00
20174;DHT22;10246;50.620;7.232;2023-02-28T08:49:13;2.40;1.00
20174;DHT22;10246;50.620;7.232;2023-02-28T08:51:40;2.50;1.00
20174;DHT22;10246;50.620;7.232;2023-02-28T08:54:07;2.50;1.00
20174;DHT22;10246;50.620;7.232;2023-02-28T08:56:35;2.70;1.00
20174;DHT22;10246;50.620;7.232;2023-02-28T08:59:02;2.70;1.00
20174;DHT22;10246;50.620;7.232;2023-02-28T09:01:29;2.60;1.00
20174;DHT22;10246;50.620;7.232;2023-02-28T09:03:58;2.70;1.00
20174;DHT22;10246;50.620;7.232;2023-02-28T09:06:26;2.80;1.00
20174;DHT22;10246;50.620;7.232;2023-02-28T09:08:53;3.00;1.00
20174;DHT22;10246;50.620;7.232;2023-02-28T09:11:23;3.00;1.00
20174;DHT22;10246;50.620;7.232;2023-02-28T09:13:52;2.90;1.00
20174;DHT22;10246;50.620;7.232;2023-02-28T09:16:19;2.90;1.00
20174;DHT22;10246;50.620;7.232;2023-02-28T09:18:46;3.00;1.00
20174;DHT22;10246;50.620;7.232;2023-02-28T09:21:14;3.10;1.00
20174;DHT22;10246;50.620;7.232;2023-02-28T09:23:41;3.10;1.00
20174;DHT22;10246;50.620;7.232;2023-02-28T09:26:11;3.20;1.00
20174;DHT22;10246;50.620;7.232;2023-02-28T09:28:39;3.40;1.00
20174;DHT22;10246;50.620;7.232;2023-02-28T09:31:12;3.40;1.00
20174;DHT22;10246;50.620;7.232;2023-02-28T09:33:39;3.60;1.00
20174;DHT22;10246;50.620;7.232;2023-02-28T09:36:06;3.60;1.00
20174;DHT22;10246;50.620;7.232;2023-02-28T09:38:33;3.60;1.00
20174;DHT22;10246;50.620;7.232;2023-02-28T09:41:03;3.60;1.00
20174;DHT22;10246;50.620;7.232;2023-02-28T09:43:39;3.60;1.00
20174;DHT22;10246;50.620;7.232;2023-02-28T09:46:14;3.60;1.00
20174;DHT22;10246;50.620;7.232;2023-02-28T09:48:46;3.80;1.00
20174;DHT22;10246;50.620;7.232;2023-02-28T09:51:26;4.00;1.00
20174;DHT22;10246;50.620;7.232;2023-02-28T09:53:54;4.20;1.00
20174;DHT22;10246;50.620;7.232;2023-02-28T09:56:25;4.40;1.00
20174;DHT22;10246;50.620;7.232;2023-02-28T09:58:57;4.70;1.00
20174;DHT22;10246;50.620;7.232;2023-02-28T10:01:31;4.70;1.00
20174;DHT22;10246;50.620;7.232;2023-02-28T10:04:05;4.70;1.00
20174;DHT22;10246;50.620;7.232;2023-02-28T10:06:41;4.80;1.00
20174;DHT22;10246;50.620;7.232;2023-02-28T10:09:13;4.90;1.00
20174;DHT22;10246;50.620;7.232;2023-02-28T10:11:42;5.20;1.00
20174;DHT22;10246;50.620;7.232;2023-02-28T10:14:14;5.20;1.00
20174;DHT22;10246;50.620;7.232;2023-02-28T10:16:45;5.40;1.00
20174;DHT22;10246;50.620;7.232;2023-02-28T10:19:22;5.20;1.00
20174;DHT22;10246;50.620;7.232;2023-02-28T10:21:55;5.20;1.00
20174;DHT22;10246;50.620;7.232;2023-02-28T10:24:27;5.30;1.00
20174;DHT22;10246;50.620;7.232;2023-02-28T10:27:00;5.40;1.00
20174;DHT22;10246;50.620;7.232;2023-02-28T10:29:27;5.30;1.00
20174;DHT22;10246;50.620;7.232;2023-02-28T10:32:02;5.40;1.00
20174;DHT22;10246;50.620;7.232;2023-02-28T10:34:30;5.80;1.00
20174;DHT22;10246;50.620;7.232;2023-02-28T10:36:58;5.90;1.00
20174;DHT22;10246;50.620;7.232;2023-02-28T10:39:37;5.80;1.00
20174;DHT22;10246;50.620;7.232;2023-02-28T10:42:05;5.60;1.00
20174;DHT22;10246;50.620;7.232;2023-02-28T10:44:44;5.60;1.00
20174;DHT22;10246;50.620;7.232;2023-02-28T10:47:16;5.70;1.00
20174;DHT22;10246;50.620;7.232;2023-02-28T10:49:47;5.80;1.00
20174;DHT22;10246;50.620;7.232;2023-02-28T10:52:33;6.00;1.00
20174;DHT22;10246;50.620;7.232;2023-02-28T10:55:16;6.30;1.00
20174;DHT22;10246;50.620;7.232;2023-02-28T10:57:42;6.40;1.00
20174;DHT22;10246;50.620;7.232;2023-02-28T11:00:15;6.40;1.00
20174;DHT22;10246;50.620;7.232;2023-02-28T11:02:44;6.60;1.00
20174;DHT22;10246;50.620;7.232;2023-02-28T11:05:26;6.70;1.00
20174;DHT22;10246;50.620;7.232;2023-02-28T11:07:54;6.80;1.00
20174;DHT22;10246;50.620;7.232;2023-02-28T11:10:26;6.80;1.00
20174;DHT22;10246;50.620;7.232;2023-02-28T11:12:56;6.80;1.00
20174;DHT22;10246;50.620;7.232;2023-02-28T11:15:30;6.90;1.00
20174;DHT22;10246;50.620;7.232;2023-02-28T11:18:24;6.80;1.00
20174;DHT22;10246;50.620;7.232;2023-02-28T11:21:00;6.90;1.00
20174;DHT22;10246;50.620;7.232;2023-02-28T11:23:39;7.00;1.00
20174;DHT22;10246;50.620;7.232;2023-02-28T11:26:14;7.20;1.00
20174;DHT22;10246;50.620;7.232;2023-02-28T11:28:44;7.10;1.00
20174;DHT22;10246;50.620;7.232;2023-02-28T11:31:18;7.30;1.00
20174;DHT22;10246;50.620;7.232;2023-02-28T11:33:50;7.30;1.00
20174;DHT22;10246;50.620;7.232;2023-02-28T11:36:20;7.30;1.00
20174;DHT22;10246;50.620;7.232;2023-02-28T11:38:50;7.20;1.00
20174;DHT22;10246;50.620;7.232;2023-02-28T11:41:31;7.20;1.00
20174;DHT22;10246;50.620;7.232;2023-02-28T11:44:23;7.20;1.00
20174;DHT22;10246;50.620;7.232;2023-02-28T11:46:57;7.20;1.00
20174;DHT22;10246;50.620;7.232;2023-02-28T11:49:44;7.30;1.00
20174;DHT22;10246;50.620;7.232;2023-02-28T11:52:20;7.40;1.00
20174;DHT22;10246;50.620;7.232;2023-02-28T11:55:05;7.50;1.00
20174;DHT22;10246;50.620;7.232;2023-02-28T11:57:49;7.50;1.00
20174;DHT22;10246;50.620;7.232;2023-02-28T12:00:32;7.50;1.00
20174;DHT22;10246;50.620;7.232;2023-02-28T12:03:15;7.50;1.00
20174;DHT22;10246;50.620;7.232;2023-02-28T12:05:48;7.40;1.00
20174;DHT22;10246;50.620;7.232;2023-02-28T12:08:26;7.50;1.00
20174;DHT22;10246;50.620;7.232;2023-02-28T12:11:05;7.70;1.00
20174;DHT22;10246;50.620;7.232;2023-02-28T12:13:41;7.90;1.00
20174;DHT22;10246;50.620;7.232;2023-02-28T12:16:32;8.00;1.00
20174;DHT22;10246;50.620;7.232;2023-02-28T12:19:10;7.90;1.00
20174;DHT22;10246;50.620;7.232;2023-02-28T12:21:53;8.00;1.00
20174;DHT22;10246;50.620;7.232;2023-02-28T12:24:39;7.90;1.00
20174;DHT22;10246;50.620;7.232;2023-02-28T12:27:12;8.10;1.00
20174;DHT22;10246;50.620;7.232;2023-02-28T12:29:46;8.20;1.00
20174;DHT22;10246;50.620;7.232;2023-02-28T12:32:16;8.30;1.00
20174;DHT22;10246;50.620;7.232;2023-02-28T12:34:48;8.20;1.00
20174;DHT22;10246;50.620;7.232;2023-02-28T12:37:21;8.00;1.00
20174;DHT22;10246;50.620;7.232;2023-02-28T12:39:51;7.90;1.00
20174;DHT22;10246;50.620;7.232;2023-02-28T12:42:25;7.80;1.00
20174;DHT22;10246;50.620;7.232;2023-02-28T12:44:58;7.90;1.00
20174;DHT22;10246;50.620;7.232;2023-02-28T12:47:25;8.20;1.00
20174;DHT22;10246;50.620;7.232;2023-02-28T12:49:55;8.40;1.00
20174;DHT22;10246;50.620;7.232;2023-02-28T12:52:30;8.60;1.00
20174;DHT22;10246;50.620;7.232;2023-02-28T12:55:06;8.70;1.00
20174;DHT22;10246;50.620;7.232;2023-02-28T12:57:39;8.70;1.00
20174;DHT22;10246;50.620;7.232;2023-02-28T13:00:13;8.40;1.00
20174;DHT22;10246;50.620;7.232;2023-02-28T13:03:04;8.40;1.00
20174;DHT22;10246;50.620;7.232;2023-02-28T13:05:57;8.50;1.00
20174;DHT22;10246;50.620;7.232;2023-02-28T13:08:45;8.60;1.00
20174;DHT22;10246;50.620;7.232;2023-02-28T13:11:29;8.70;1.00
20174;DHT22;10246;50.620;7.232;2023-02-28T13:13:59;8.80;1.00
20174;DHT22;10246;50.620;7.232;2023-02-28T13:16:26;8.80;1.00
20174;DHT22;10246;50.620;7.232;2023-02-28T13:19:08;8.80;1.00
20174;DHT22;10246;50.620;7.232;2023-02-28T13:21:42;9.00;1.00
20174;DHT22;10246;50.620;7.232;2023-02-28T13:24:11;9.10;1.00
20174;DHT22;10246;50.620;7.232;2023-02-28T13:29:59;9.30;1.00
20174;DHT22;10246;50.620;7.232;2023-02-28T13:32:36;9.20;1.00
20174;DHT22;10246;50.620;7.232;2023-02-28T13:35:35;9.10;1.00
20174;DHT22;10246;50.620;7.232;2023-02-28T13:38:24;9.00;1.00
20174;DHT22;10246;50.620;7.232;2023-02-28T13:40:52;9.10;1.00
20174;DHT22;10246;50.620;7.232;2023-02-28T13:43:19;9.30;1.00
20174;DHT22;10246;50.620;7.232;2023-02-28T13:46:07;9.30;1.00
20174;DHT22;10246;50.620;7.232;2023-02-28T13:48:34;9.10;1.00
20174;DHT22;10246;50.620;7.232;2023-02-28T13:51:27;9.10;1.00
20174;DHT22;10246;50.620;7.232;2023-02-28T13:54:00;9.20;1.00
20174;DHT22;10246;50.620;7.232;2023-02-28T13:56:40;9.30;1.00
20174;DHT22;10246;50.620;7.232;2023-02-28T13:59:20;9.20;1.00
20174;DHT22;10246;50.620;7.232;2023-02-28T14:02:01;9.30;1.00
20174;DHT22;10246;50.620;7.232;2023-02-28T14:04:48;9.20;1.00
20174;DHT22;10246;50.620;7.232;2023-02-28T14:07:20;9.20;1.00
20174;DHT22;10246;50.620;7.232;2023-02-28T14:09:55;9.10;1.00
20174;DHT22;10246;50.620;7.232;2023-02-28T14:12:59;9.20;1.00
20174;DHT22;10246;50.620;7.232;2023-02-28T14:15:57;9.30;1.00
20174;DHT22;10246;50.620;7.232;2023-02-28T14:18:27;9.20;1.00
20174;DHT22;10246;50.620;7.232;2023-02-28T14:20:58;9.10;1.00
20174;DHT22;10246;50.620;7.232;2023-02-28T14:26:25;9.10;1.00
20174;DHT22;10246;50.620;7.232;2023-02-28T14:29:07;9.10;1.00
20174;DHT22;10246;50.620;7.232;2023-02-28T14:31:44;9.00;1.00
20174;DHT22;10246;50.620;7.232;2023-02-28T14:34:23;9.10;1.00
20174;DHT22;10246;50.620;7.232;2023-02-28T14:36:53;9.20;1.00
20174;DHT22;10246;50.620;7.232;2023-02-28T14:39:22;9.20;1.00
20174;DHT22;10246;50.620;7.232;2023-02-28T14:41:50;9.10;1.00
20174;DHT22;10246;50.620;7.232;2023-02-28T14:44:21;9.10;1.00
20174;DHT22;10246;50.620;7.232;2023-02-28T14:46:50;9.00;1.00
20174;DHT22;10246;50.620;7.232;2023-02-28T14:49:19;9.00;1.00
20174;DHT22;10246;50.620;7.232;2023-02-28T14:51:49;9.10;1.00
20174;DHT22;10246;50.620;7.232;2023-02-28T14:54:18;9.20;1.00
20174;DHT22;10246;50.620;7.232;2023-02-28T14:56:50;9.30;1.00
20174;DHT22;10246;50.620;7.232;2023-02-28T14:59:28;9.20;1.00
20174;DHT22;10246;50.620;7.232;2023-02-28T15:02:19;9.00;1.00
20174;DHT22;10246;50.620;7.232;2023-02-28T15:04:54;9.10;1.00
20174;DHT22;10246;50.620;7.232;2023-02-28T15:07:22;9.10;1.00
20174;DHT22;10246;50.620;7.232;2023-02-28T15:10:10;9.10;1.00
20174;DHT22;10246;50.620;7.232;2023-02-28T15:12:39;9.00;1.00
20174;DHT22;10246;50.620;7.232;2023-02-28T15:15:15;8.90;1.00
20174;DHT22;10246;50.620;7.232;2023-02-28T15:17:44;8.70;1.00
20174;DHT22;10246;50.620;7.232;2023-02-28T15:20:13;8.80;1.00
20174;DHT22;10246;50.620;7.232;2023-02-28T15:22:41;8.80;1.00
20174;DHT22;10246;50.620;7.232;2023-02-28T15:25:10;8.80;1.00
20174;DHT22;10246;50.620;7.232;2023-02-28T15:27:44;8.70;1.00
20174;DHT22;10246;50.620;7.232;2023-02-28T15:30:17;8.60;1.00
20174;DHT22;10246;50.620;7.232;2023-02-28T15:32:44;8.50;1.00
20174;DHT22;10246;50.620;7.232;2023-02-28T15:35:20;8.60;1.00
20174;DHT22;10246;50.620;7.232;2023-02-28T15:37:54;8.50;1.00
20174;DHT22;10246;50.620;7.232;2023-02-28T15:40:26;8.40;1.00
20174;DHT22;10246;50.620;7.232;2023-02-28T15:43:03;8.40;1.00
20174;DHT22;10246;50.620;7.232;2023-02-28T15:45:35;8.30;1.00
20174;DHT22;10246;50.620;7.232;2023-02-28T15:48:15;8.30;1.00
20174;DHT22;10246;50.620;7.232;2023-02-28T15:50:42;8.20;1.00
20174;DHT22;10246;50.620;7.232;2023-02-28T15:53:14;8.10;1.00
20174;DHT22;10246;50.620;7.232;2023-02-28T15:55:42;8.00;1.00
20174;DHT22;10246;50.620;7.232;2023-02-28T15:58:11;8.00;1.00
20174;DHT22;10246;50.620;7.232;2023-02-28T16:00:43;7.90;1.00
20174;DHT22;10246;50.620;7.232;2023-02-28T16:03:25;7.90;1.00
20174;DHT22;10246;50.620;7.232;2023-02-28T16:06:22;7.80;1.00
20174;DHT22;10246;50.620;7.232;2023-02-28T16:08:51;7.80;1.00
20174;DHT22;10246;50.620;7.232;2023-02-28T16:11:20;7.70;1.00
20174;DHT22;10246;50.620;7.232;2023-02-28T16:13:47;7.60;1.00
20174;DHT22;10246;50.620;7.232;2023-02-28T16:16:17;7.60;1.00
20174;DHT22;10246;50.620;7.232;2023-02-28T16:18:44;7.50;1.00
20174;DHT22;10246;50.620;7.232;2023-02-28T16:21:11;7.50;1.00
20174;DHT22;10246;50.620;7.232;2023-02-28T16:23:38;7.60;1.00
20174;DHT22;10246;50.620;7.232;2023-02-28T16:26:05;7.50;1.00
20174;DHT22;10246;50.620;7.232;2023-02-28T16:28:35;7.40;1.00
20174;DHT22;10246;50.620;7.232;2023-02-28T16:31:04;7.40;1.00
20174;DHT22;10246;50.620;7.232;2023-02-28T16:33:33;7.30;1.00
20174;DHT22;10246;50.620;7.232;2023-02-28T16:36:00;7.30;1.00